sensor_id;sensor_type;location;lat;lon;timestamp;temperature;humidity
37052;DHT22;22964;52.272;13.356;2023-12-29T00:00:36;11.70;67.20
37052;DHT22;22964;52.272;13.356;2023-12-29T00:03:02;11.70;67.10
37052;DHT22;22964;52.272;13.356;2023-12-29T00:05:28;11.70;67.00
37052;DHT22;22964;52.272;13.356;2023-12-29T00:07:54;11.70;67.00
37052;DHT22;22964;52.272;13.356;2023-12-29T00:10:19;11.70;67.00
37052;DHT22;22964;52.272;13.356;2023-12-29T00:12:45;11.70;67.00
37052;DHT22;22964;52.272;13.356;2023-12-29T00:15:11;11.70;67.00
37052;DHT22;22964;52.272;13.356;2023-12-29T00:17:37;11.80;66.90
37052;DHT22;22964;52.272;13.356;2023-12-29T00:20:05;11.80;66.90
37052;DHT22;22964;52.272;13.356;2023-12-29T00:22:33;11.80;66.80
37052;DHT22;22964;52.272;13.356;2023-12-29T00:24:59;11.80;66.80
37052;DHT22;22964;52.272;13.356;2023-12-29T00:27:25;11.80;66.70
37052;DHT22;22964;52.272;13.356;2023-12-29T00:29:51;11.80;66.80
37052;DHT22;22964;52.272;13.356;2023-12-29T00:32:16;11.80;66.70
37052;DHT22;22964;52.272;13.356;2023-12-29T00:34:42;11.80;66.70
37052;DHT22;22964;52.272;13.356;2023-12-29T00:37:08;11.80;66.60
37052;DHT22;22964;52.272;13.356;2023-12-29T00:39:34;11.80;66.60
37052;DHT22;22964;52.272;13.356;2023-12-29T00:42:07;11.80;66.60
37052;DHT22;22964;52.272;13.356;2023-12-29T00:44:33;11.80;66.60
37052;DHT22;22964;52.272;13.356;2023-12-29T00:46:59;11.90;66.50
37052;DHT22;22964;52.272;13.356;2023-12-29T00:49:26;11.90;66.50
37052;DHT22;22964;52.272;13.356;2023-12-29T00:51:52;11.90;66.50
37052;DHT22;22964;52.272;13.356;2023-12-29T00:54:18;11.90;66.40
37052;DHT22;22964;52.272;13.356;2023-12-29T00:56:51;11.90;66.40
37052;DHT22;22964;52.272;13.356;2023-12-29T00:59:20;11.90;66.40
37052;DHT22;22964;52.272;13.356;2023-12-29T01:01:46;12.00;66.40
37052;DHT22;22964;52.272;13.356;2023-12-29T01:04:12;11.90;66.30
37052;DHT22;22964;52.272;13.356;2023-12-29T01:06:37;12.00;66.40
37052;DHT22;22964;52.272;13.356;2023-12-29T01:09:03;12.00;66.30
37052;DHT22;22964;52.272;13.356;2023-12-29T01:11:29;12.00;66.30
37052;DHT22;22964;52.272;13.356;2023-12-29T01:13:56;12.00;66.30
37052;DHT22;22964;52.272;13.356;2023-12-29T01:16:21;12.00;66.20
37052;DHT22;22964;52.272;13.356;2023-12-29T01:18:47;12.10;66.20
37052;DHT22;22964;52.272;13.356;2023-12-29T01:21:13;12.10;66.20
37052;DHT22;22964;52.272;13.356;2023-12-29T01:23:38;12.10;66.10
37052;DHT22;22964;52.272;13.356;2023-12-29T01:26:04;12.20;66.10
37052;DHT22;22964;52.272;13.356;2023-12-29T01:28:30;12.10;66.00
37052;DHT22;22964;52.272;13.356;2023-12-29T01:30:55;12.20;66.00
37052;DHT22;22964;52.272;13.356;2023-12-29T01:33:21;12.20;65.90
37052;DHT22;22964;52.272;13.356;2023-12-29T01:35:47;12.20;65.90
37052;DHT22;22964;52.272;13.356;2023-12-29T01:38:13;12.20;65.90
37052;DHT22;22964;52.272;13.356;2023-12-29T01:40:43;12.20;65.80
37052;DHT22;22964;52.272;13.356;2023-12-29T01:43:09;12.20;65.80
37052;DHT22;22964;52.272;13.356;2023-12-29T01:45:35;12.20;65.80
37052;DHT22;22964;52.272;13.356;2023-12-29T01:48:01;12.30;65.80
37052;DHT22;22964;52.272;13.356;2023-12-29T01:50:27;12.20;65.60
37052;DHT22;22964;52.272;13.356;2023-12-29T01:52:53;12.30;65.60
37052;DHT22;22964;52.272;13.356;2023-12-29T01:55:20;12.30;65.60
37052;DHT22;22964;52.272;13.356;2023-12-29T01:57:49;12.30;65.50
37052;DHT22;22964;52.272;13.356;2023-12-29T02:00:17;12.30;65.40
37052;DHT22;22964;52.272;13.356;2023-12-29T02:02:45;12.30;65.50
37052;DHT22;22964;52.272;13.356;2023-12-29T02:05:13;12.30;65.50
37052;DHT22;22964;52.272;13.356;2023-12-29T02:07:41;12.30;65.40
37052;DHT22;22964;52.272;13.356;2023-12-29T02:10:08;12.30;65.30
37052;DHT22;22964;52.272;13.356;2023-12-29T02:12:37;12.40;65.40
37052;DHT22;22964;52.272;13.356;2023-12-29T02:15:04;12.40;65.30
37052;DHT22;22964;52.272;13.356;2023-12-29T02:17:59;12.40;65.30
37052;DHT22;22964;52.272;13.356;2023-12-29T02:20:26;12.40;65.20
37052;DHT22;22964;52.272;13.356;2023-12-29T02:22:51;12.40;65.20
37052;DHT22;22964;52.272;13.356;2023-12-29T02:25:17;12.40;65.20
37052;DHT22;22964;52.272;13.356;2023-12-29T02:27:49;12.40;65.10
37052;DHT22;22964;52.272;13.356;2023-12-29T02:31:13;12.40;65.10
37052;DHT22;22964;52.272;13.356;2023-12-29T02:33:16;12.40;65.00
37052;DHT22;22964;52.272;13.356;2023-12-29T02:35:45;12.40;65.00
37052;DHT22;22964;52.272;13.356;2023-12-29T02:38:12;12.30;64.90
37052;DHT22;22964;52.272;13.356;2023-12-29T02:40:38;12.30;64.80
37052;DHT22;22964;52.272;13.356;2023-12-29T02:43:04;12.30;64.90
37052;DHT22;22964;52.272;13.356;2023-12-29T02:45:30;12.30;64.90
37052;DHT22;22964;52.272;13.356;2023-12-29T02:47:56;12.30;65.70
37052;DHT22;22964;52.272;13.356;2023-12-29T02:50:22;12.30;64.90
37052;DHT22;22964;52.272;13.356;2023-12-29T02:52:47;12.20;64.80
37052;DHT22;22964;52.272;13.356;2023-12-29T02:55:13;12.20;64.80
37052;DHT22;22964;52.272;13.356;2023-12-29T02:57:39;12.20;64.80
37052;DHT22;22964;52.272;13.356;2023-12-29T03:00:05;12.20;64.90
37052;DHT22;22964;52.272;13.356;2023-12-29T03:02:31;12.10;64.90
37052;DHT22;22964;52.272;13.356;2023-12-29T03:04:58;12.10;65.00
37052;DHT22;22964;52.272;13.356;2023-12-29T03:07:24;12.10;65.10
37052;DHT22;22964;52.272;13.356;2023-12-29T03:09:50;12.00;65.10
37052;DHT22;22964;52.272;13.356;2023-12-29T03:12:15;12.00;65.10
37052;DHT22;22964;52.272;13.356;2023-12-29T03:14:41;12.00;65.20
37052;DHT22;22964;52.272;13.356;2023-12-29T03:17:07;12.00;65.20
37052;DHT22;22964;52.272;13.356;2023-12-29T03:19:32;12.00;65.20
37052;DHT22;22964;52.272;13.356;2023-12-29T03:21:59;11.90;65.20
37052;DHT22;22964;52.272;13.356;2023-12-29T03:24:25;11.90;65.30
37052;DHT22;22964;52.272;13.356;2023-12-29T03:26:51;11.90;65.30
37052;DHT22;22964;52.272;13.356;2023-12-29T03:29:16;11.90;65.30
37052;DHT22;22964;52.272;13.356;2023-12-29T03:31:42;11.80;65.30
37052;DHT22;22964;52.272;13.356;2023-12-29T03:34:07;11.80;65.40
37052;DHT22;22964;52.272;13.356;2023-12-29T03:36:33;11.80;65.50
37052;DHT22;22964;52.272;13.356;2023-12-29T03:38:59;11.70;65.50
37052;DHT22;22964;52.272;13.356;2023-12-29T03:41:25;11.70;65.60
37052;DHT22;22964;52.272;13.356;2023-12-29T03:43:50;11.70;65.60
37052;DHT22;22964;52.272;13.356;2023-12-29T03:46:20;11.70;65.60
37052;DHT22;22964;52.272;13.356;2023-12-29T03:48:47;11.70;65.70
37052;DHT22;22964;52.272;13.356;2023-12-29T03:51:13;11.70;65.70
37052;DHT22;22964;52.272;13.356;2023-12-29T03:53:40;11.70;65.80
37052;DHT22;22964;52.272;13.356;2023-12-29T03:56:13;11.70;65.90
37052;DHT22;22964;52.272;13.356;2023-12-29T03:58:38;11.70;66.10
37052;DHT22;22964;52.272;13.356;2023-12-29T04:01:09;11.60;66.00
37052;DHT22;22964;52.272;13.356;2023-12-29T04:03:34;11.60;66.00
37052;DHT22;22964;52.272;13.356;2023-12-29T04:06:00;11.60;66.20
37052;DHT22;22964;52.272;13.356;2023-12-29T04:08:26;11.60;66.10
37052;DHT22;22964;52.272;13.356;2023-12-29T04:10:51;11.70;66.20
37052;DHT22;22964;52.272;13.356;2023-12-29T04:13:18;11.70;66.20
37052;DHT22;22964;52.272;13.356;2023-12-29T04:15:43;11.70;66.40
37052;DHT22;22964;52.272;13.356;2023-12-29T04:18:09;11.70;66.50
37052;DHT22;22964;52.272;13.356;2023-12-29T04:20:35;11.70;66.60
37052;DHT22;22964;52.272;13.356;2023-12-29T04:23:00;11.70;66.60
37052;DHT22;22964;52.272;13.356;2023-12-29T04:25:28;11.70;67.60
37052;DHT22;22964;52.272;13.356;2023-12-29T04:27:54;11.80;66.80
37052;DHT22;22964;52.272;13.356;2023-12-29T04:30:19;11.80;66.80
37052;DHT22;22964;52.272;13.356;2023-12-29T04:32:45;11.80;66.80
37052;DHT22;22964;52.272;13.356;2023-12-29T04:35:11;11.90;66.80
37052;DHT22;22964;52.272;13.356;2023-12-29T04:37:38;11.90;66.70
37052;DHT22;22964;52.272;13.356;2023-12-29T04:40:05;12.00;66.70
37052;DHT22;22964;52.272;13.356;2023-12-29T04:42:31;12.00;66.70
37052;DHT22;22964;52.272;13.356;2023-12-29T04:44:56;12.00;66.60
37052;DHT22;22964;52.272;13.356;2023-12-29T04:47:22;12.10;66.70
37052;DHT22;22964;52.272;13.356;2023-12-29T04:49:48;12.10;66.60
37052;DHT22;22964;52.272;13.356;2023-12-29T04:52:13;12.20;66.50
37052;DHT22;22964;52.272;13.356;2023-12-29T04:54:39;12.10;66.40
37052;DHT22;22964;52.272;13.356;2023-12-29T04:57:04;12.20;67.20
37052;DHT22;22964;52.272;13.356;2023-12-29T04:59:30;12.30;66.40
37052;DHT22;22964;52.272;13.356;2023-12-29T05:01:56;12.30;66.20
37052;DHT22;22964;52.272;13.356;2023-12-29T05:04:21;12.30;66.00
37052;DHT22;22964;52.272;13.356;2023-12-29T05:06:47;12.30;65.90
37052;DHT22;22964;52.272;13.356;2023-12-29T05:09:13;12.30;65.70
37052;DHT22;22964;52.272;13.356;2023-12-29T05:11:39;12.40;65.80
37052;DHT22;22964;52.272;13.356;2023-12-29T05:14:05;12.40;65.70
37052;DHT22;22964;52.272;13.356;2023-12-29T05:16:30;12.40;65.70
37052;DHT22;22964;52.272;13.356;2023-12-29T05:18:56;12.40;65.60
37052;DHT22;22964;52.272;13.356;2023-12-29T05:21:22;12.40;65.50
37052;DHT22;22964;52.272;13.356;2023-12-29T05:23:49;12.40;65.50
37052;DHT22;22964;52.272;13.356;2023-12-29T05:26:15;12.40;65.50
37052;DHT22;22964;52.272;13.356;2023-12-29T05:28:41;12.40;65.40
37052;DHT22;22964;52.272;13.356;2023-12-29T05:31:07;12.40;65.50
37052;DHT22;22964;52.272;13.356;2023-12-29T05:33:33;12.40;65.50
37052;DHT22;22964;52.272;13.356;2023-12-29T05:35:59;12.40;65.40
37052;DHT22;22964;52.272;13.356;2023-12-29T05:38:32;12.40;65.40
37052;DHT22;22964;52.272;13.356;2023-12-29T05:40:58;12.40;65.40
37052;DHT22;22964;52.272;13.356;2023-12-29T05:43:23;12.50;65.40
37052;DHT22;22964;52.272;13.356;2023-12-29T05:45:49;12.50;65.20
37052;DHT22;22964;52.272;13.356;2023-12-29T05:48:15;12.50;65.20
37052;DHT22;22964;52.272;13.356;2023-12-29T05:50:41;12.50;65.00
37052;DHT22;22964;52.272;13.356;2023-12-29T05:53:06;12.60;65.10
37052;DHT22;22964;52.272;13.356;2023-12-29T05:55:32;12.60;65.10
37052;DHT22;22964;52.272;13.356;2023-12-29T05:57:58;12.60;65.10
37052;DHT22;22964;52.272;13.356;2023-12-29T06:00:23;12.60;65.00
37052;DHT22;22964;52.272;13.356;2023-12-29T06:02:49;12.70;64.90
37052;DHT22;22964;52.272;13.356;2023-12-29T06:05:15;12.60;64.70
37052;DHT22;22964;52.272;13.356;2023-12-29T06:07:41;12.70;64.50
37052;DHT22;22964;52.272;13.356;2023-12-29T06:10:07;12.70;65.50
37052;DHT22;22964;52.272;13.356;2023-12-29T06:12:34;12.80;64.40
37052;DHT22;22964;52.272;13.356;2023-12-29T06:15:00;12.80;64.40
37052;DHT22;22964;52.272;13.356;2023-12-29T06:17:26;12.80;64.20
37052;DHT22;22964;52.272;13.356;2023-12-29T06:19:53;12.80;64.30
37052;DHT22;22964;52.272;13.356;2023-12-29T06:22:19;12.90;64.40
37052;DHT22;22964;52.272;13.356;2023-12-29T06:24:44;12.90;64.20
37052;DHT22;22964;52.272;13.356;2023-12-29T06:27:11;12.90;64.10
37052;DHT22;22964;52.272;13.356;2023-12-29T06:29:37;12.90;64.10
37052;DHT22;22964;52.272;13.356;2023-12-29T06:32:04;13.00;64.10
37052;DHT22;22964;52.272;13.356;2023-12-29T06:34:30;13.00;64.20
37052;DHT22;22964;52.272;13.356;2023-12-29T06:36:56;13.00;64.10
37052;DHT22;22964;52.272;13.356;2023-12-29T06:39:21;13.00;63.90
37052;DHT22;22964;52.272;13.356;2023-12-29T06:41:48;13.10;63.70
37052;DHT22;22964;52.272;13.356;2023-12-29T06:44:14;13.10;63.70
37052;DHT22;22964;52.272;13.356;2023-12-29T06:46:39;13.10;63.70
37052;DHT22;22964;52.272;13.356;2023-12-29T06:49:09;13.10;63.50
37052;DHT22;22964;52.272;13.356;2023-12-29T06:51:34;13.20;63.10
37052;DHT22;22964;52.272;13.356;2023-12-29T06:54:01;13.20;63.40
37052;DHT22;22964;52.272;13.356;2023-12-29T06:56:27;13.30;63.50
37052;DHT22;22964;52.272;13.356;2023-12-29T06:58:53;13.30;63.20
37052;DHT22;22964;52.272;13.356;2023-12-29T07:01:19;13.30;63.20
37052;DHT22;22964;52.272;13.356;2023-12-29T07:03:44;13.30;62.80
37052;DHT22;22964;52.272;13.356;2023-12-29T07:06:10;13.40;62.90
37052;DHT22;22964;52.272;13.356;2023-12-29T07:08:36;13.40;62.70
37052;DHT22;22964;52.272;13.356;2023-12-29T07:11:02;13.40;62.80
37052;DHT22;22964;52.272;13.356;2023-12-29T07:13:29;13.40;62.80
37052;DHT22;22964;52.272;13.356;2023-12-29T07:15:54;13.40;62.60
37052;DHT22;22964;52.272;13.356;2023-12-29T07:18:20;13.40;62.40
37052;DHT22;22964;52.272;13.356;2023-12-29T07:20:46;13.40;62.50
37052;DHT22;22964;52.272;13.356;2023-12-29T07:23:12;13.40;63.50
37052;DHT22;22964;52.272;13.356;2023-12-29T07:25:38;13.40;62.70
37052;DHT22;22964;52.272;13.356;2023-12-29T07:28:04;13.40;62.50
37052;DHT22;22964;52.272;13.356;2023-12-29T07:30:29;13.40;62.50
37052;DHT22;22964;52.272;13.356;2023-12-29T07:32:55;13.50;62.50
37052;DHT22;22964;52.272;13.356;2023-12-29T07:35:21;13.50;62.20
37052;DHT22;22964;52.272;13.356;2023-12-29T07:37:47;13.50;62.40
37052;DHT22;22964;52.272;13.356;2023-12-29T07:40:13;13.50;62.60
37052;DHT22;22964;52.272;13.356;2023-12-29T07:42:39;13.50;62.20
37052;DHT22;22964;52.272;13.356;2023-12-29T07:45:06;13.50;62.30
37052;DHT22;22964;52.272;13.356;2023-12-29T07:47:32;13.50;62.20
37052;DHT22;22964;52.272;13.356;2023-12-29T07:49:57;13.60;62.50
37052;DHT22;22964;52.272;13.356;2023-12-29T07:52:23;13.60;62.30
37052;DHT22;22964;52.272;13.356;2023-12-29T07:54:49;13.60;62.20
37052;DHT22;22964;52.272;13.356;2023-12-29T07:57:15;13.60;62.90
37052;DHT22;22964;52.272;13.356;2023-12-29T07:59:41;13.60;61.70
37052;DHT22;22964;52.272;13.356;2023-12-29T08:02:07;13.60;62.00
37052;DHT22;22964;52.272;13.356;2023-12-29T08:04:32;13.60;61.90
37052;DHT22;22964;52.272;13.356;2023-12-29T08:06:58;13.60;62.00
37052;DHT22;22964;52.272;13.356;2023-12-29T08:09:25;13.60;61.90
37052;DHT22;22964;52.272;13.356;2023-12-29T08:11:51;13.60;61.70
37052;DHT22;22964;52.272;13.356;2023-12-29T08:14:17;13.60;61.80
37052;DHT22;22964;52.272;13.356;2023-12-29T08:16:42;13.60;61.90
37052;DHT22;22964;52.272;13.356;2023-12-29T08:19:08;13.70;61.90
37052;DHT22;22964;52.272;13.356;2023-12-29T08:21:36;13.70;62.00
37052;DHT22;22964;52.272;13.356;2023-12-29T08:24:01;13.70;61.80
37052;DHT22;22964;52.272;13.356;2023-12-29T08:26:27;13.70;61.60
37052;DHT22;22964;52.272;13.356;2023-12-29T08:28:53;13.70;61.80
37052;DHT22;22964;52.272;13.356;2023-12-29T08:31:19;13.70;61.80
37052;DHT22;22964;52.272;13.356;2023-12-29T08:33:45;13.70;61.60
37052;DHT22;22964;52.272;13.356;2023-12-29T08:36:13;13.60;61.50
37052;DHT22;22964;52.272;13.356;2023-12-29T08:38:43;13.60;61.60
37052;DHT22;22964;52.272;13.356;2023-12-29T08:41:08;13.60;61.70
37052;DHT22;22964;52.272;13.356;2023-12-29T08:43:34;13.60;61.80
37052;DHT22;22964;52.272;13.356;2023-12-29T08:46:02;13.60;61.80
37052;DHT22;22964;52.272;13.356;2023-12-29T08:48:27;13.60;61.70
37052;DHT22;22964;52.272;13.356;2023-12-29T08:50:53;13.50;61.70
37052;DHT22;22964;52.272;13.356;2023-12-29T08:53:19;13.50;62.00
37052;DHT22;22964;52.272;13.356;2023-12-29T08:55:44;13.50;62.20
37052;DHT22;22964;52.272;13.356;2023-12-29T08:58:11;13.60;62.50
37052;DHT22;22964;52.272;13.356;2023-12-29T09:00:37;13.60;62.30
37052;DHT22;22964;52.272;13.356;2023-12-29T09:03:03;13.60;62.20
37052;DHT22;22964;52.272;13.356;2023-12-29T09:05:28;13.60;62.10
37052;DHT22;22964;52.272;13.356;2023-12-29T09:07:54;13.60;62.30
37052;DHT22;22964;52.272;13.356;2023-12-29T09:10:20;13.70;62.30
37052;DHT22;22964;52.272;13.356;2023-12-29T09:12:46;13.70;62.20
37052;DHT22;22964;52.272;13.356;2023-12-29T09:15:12;13.70;62.30
37052;DHT22;22964;52.272;13.356;2023-12-29T09:17:38;13.80;62.30
37052;DHT22;22964;52.272;13.356;2023-12-29T09:20:04;13.80;62.10
37052;DHT22;22964;52.272;13.356;2023-12-29T09:22:29;13.80;62.10
37052;DHT22;22964;52.272;13.356;2023-12-29T09:24:55;13.90;62.20
37052;DHT22;22964;52.272;13.356;2023-12-29T09:27:21;13.90;62.20
37052;DHT22;22964;52.272;13.356;2023-12-29T09:29:47;13.90;62.10
37052;DHT22;22964;52.272;13.356;2023-12-29T09:32:13;13.90;61.90
37052;DHT22;22964;52.272;13.356;2023-12-29T09:34:38;14.00;61.80
37052;DHT22;22964;52.272;13.356;2023-12-29T09:37:04;14.00;62.40
37052;DHT22;22964;52.272;13.356;2023-12-29T09:39:30;14.00;61.70
37052;DHT22;22964;52.272;13.356;2023-12-29T09:41:58;14.00;61.80
37052;DHT22;22964;52.272;13.356;2023-12-29T09:44:28;14.00;61.90
37052;DHT22;22964;52.272;13.356;2023-12-29T09:46:54;14.00;61.80
37052;DHT22;22964;52.272;13.356;2023-12-29T09:49:20;14.10;61.80
37052;DHT22;22964;52.272;13.356;2023-12-29T09:51:47;14.10;61.90
37052;DHT22;22964;52.272;13.356;2023-12-29T09:54:14;14.10;61.70
37052;DHT22;22964;52.272;13.356;2023-12-29T09:56:41;14.10;61.70
37052;DHT22;22964;52.272;13.356;2023-12-29T09:59:10;14.20;61.70
37052;DHT22;22964;52.272;13.356;2023-12-29T10:01:37;14.20;61.60
37052;DHT22;22964;52.272;13.356;2023-12-29T10:04:04;14.20;61.70
37052;DHT22;22964;52.272;13.356;2023-12-29T10:06:35;14.30;61.80
37052;DHT22;22964;52.272;13.356;2023-12-29T10:09:03;14.20;61.60
37052;DHT22;22964;52.272;13.356;2023-12-29T10:11:34;14.30;61.60
37052;DHT22;22964;52.272;13.356;2023-12-29T10:14:06;14.30;61.60
37052;DHT22;22964;52.272;13.356;2023-12-29T10:16:41;14.40;61.60
37052;DHT22;22964;52.272;13.356;2023-12-29T10:21:54;14.50;61.30
37052;DHT22;22964;52.272;13.356;2023-12-29T10:24:22;14.50;61.30
37052;DHT22;22964;52.272;13.356;2023-12-29T10:26:49;14.60;61.30
37052;DHT22;22964;52.272;13.356;2023-12-29T10:29:16;14.60;61.50
37052;DHT22;22964;52.272;13.356;2023-12-29T10:31:44;14.70;61.30
37052;DHT22;22964;52.272;13.356;2023-12-29T10:34:25;14.70;61.60
37052;DHT22;22964;52.272;13.356;2023-12-29T10:36:58;14.80;61.10
37052;DHT22;22964;52.272;13.356;2023-12-29T10:39:25;14.80;61.30
37052;DHT22;22964;52.272;13.356;2023-12-29T10:42:07;14.90;61.30
37052;DHT22;22964;52.272;13.356;2023-12-29T10:44:35;15.00;61.70
37052;DHT22;22964;52.272;13.356;2023-12-29T10:47:11;15.10;61.40
37052;DHT22;22964;52.272;13.356;2023-12-29T10:49:37;15.10;60.70
37052;DHT22;22964;52.272;13.356;2023-12-29T10:52:13;15.20;61.20
37052;DHT22;22964;52.272;13.356;2023-12-29T10:54:40;15.30;60.70
37052;DHT22;22964;52.272;13.356;2023-12-29T10:57:07;15.40;60.60
37052;DHT22;22964;52.272;13.356;2023-12-29T10:59:33;15.50;60.30
37052;DHT22;22964;52.272;13.356;2023-12-29T11:02:01;15.50;60.00
37052;DHT22;22964;52.272;13.356;2023-12-29T11:04:29;15.60;59.50
37052;DHT22;22964;52.272;13.356;2023-12-29T11:06:54;15.60;59.40
37052;DHT22;22964;52.272;13.356;2023-12-29T11:09:31;15.60;59.40
37052;DHT22;22964;52.272;13.356;2023-12-29T11:12:07;15.50;59.50
37052;DHT22;22964;52.272;13.356;2023-12-29T11:14:33;15.60;59.10
37052;DHT22;22964;52.272;13.356;2023-12-29T11:17:00;15.50;59.40
37052;DHT22;22964;52.272;13.356;2023-12-29T11:19:27;15.50;59.30
37052;DHT22;22964;52.272;13.356;2023-12-29T11:21:54;15.50;58.80
37052;DHT22;22964;52.272;13.356;2023-12-29T11:24:21;15.50;59.00
37052;DHT22;22964;52.272;13.356;2023-12-29T11:26:51;15.50;59.20
37052;DHT22;22964;52.272;13.356;2023-12-29T11:29:18;15.50;59.20
37052;DHT22;22964;52.272;13.356;2023-12-29T11:31:47;15.50;59.10
37052;DHT22;22964;52.272;13.356;2023-12-29T11:34:25;15.50;59.20
37052;DHT22;22964;52.272;13.356;2023-12-29T11:36:59;15.50;58.80
37052;DHT22;22964;52.272;13.356;2023-12-29T11:39:42;15.50;58.80
37052;DHT22;22964;52.272;13.356;2023-12-29T11:42:19;15.50;58.80
37052;DHT22;22964;52.272;13.356;2023-12-29T11:44:46;15.50;58.90
37052;DHT22;22964;52.272;13.356;2023-12-29T11:47:36;15.50;59.10
37052;DHT22;22964;52.272;13.356;2023-12-29T11:50:02;15.40;58.60
37052;DHT22;22964;52.272;13.356;2023-12-29T11:52:36;15.40;59.00
37052;DHT22;22964;52.272;13.356;2023-12-29T11:55:12;15.40;58.60
37052;DHT22;22964;52.272;13.356;2023-12-29T11:57:38;15.40;58.60
37052;DHT22;22964;52.272;13.356;2023-12-29T12:00:06;15.50;59.20
37052;DHT22;22964;52.272;13.356;2023-12-29T12:02:37;15.40;58.80
37052;DHT22;22964;52.272;13.356;2023-12-29T12:05:03;15.50;59.00
37052;DHT22;22964;52.272;13.356;2023-12-29T12:12:47;15.40;58.80
37052;DHT22;22964;52.272;13.356;2023-12-29T12:17:59;15.40;58.70
37052;DHT22;22964;52.272;13.356;2023-12-29T12:20:25;15.40;58.80
37052;DHT22;22964;52.272;13.356;2023-12-29T12:23:11;15.40;58.80
37052;DHT22;22964;52.272;13.356;2023-12-29T12:25:40;15.40;58.70
37052;DHT22;22964;52.272;13.356;2023-12-29T12:28:07;15.40;59.80
37052;DHT22;22964;52.272;13.356;2023-12-29T12:30:33;15.40;59.10
37052;DHT22;22964;52.272;13.356;2023-12-29T12:33:03;15.40;59.20
37052;DHT22;22964;52.272;13.356;2023-12-29T12:35:29;15.40;59.10
37052;DHT22;22964;52.272;13.356;2023-12-29T12:38:15;15.40;59.10
37052;DHT22;22964;52.272;13.356;2023-12-29T12:40:49;15.40;58.80
37052;DHT22;22964;52.272;13.356;2023-12-29T12:43:16;15.40;59.10
37052;DHT22;22964;52.272;13.356;2023-12-29T12:45:47;15.50;59.20
37052;DHT22;22964;52.272;13.356;2023-12-29T12:48:23;15.40;59.00
37052;DHT22;22964;52.272;13.356;2023-12-29T12:50:49;15.40;58.90
37052;DHT22;22964;52.272;13.356;2023-12-29T12:53:15;15.40;59.20
37052;DHT22;22964;52.272;13.356;2023-12-29T12:55:49;15.40;59.00
37052;DHT22;22964;52.272;13.356;2023-12-29T12:58:19;15.30;59.00
37052;DHT22;22964;52.272;13.356;2023-12-29T13:00:49;15.40;59.30
37052;DHT22;22964;52.272;13.356;2023-12-29T13:03:15;15.30;59.20
37052;DHT22;22964;52.272;13.356;2023-12-29T13:05:42;15.30;59.40
37052;DHT22;22964;52.272;13.356;2023-12-29T13:08:09;15.30;59.40
37052;DHT22;22964;52.272;13.356;2023-12-29T13:10:40;15.30;59.40
37052;DHT22;22964;52.272;13.356;2023-12-29T13:13:07;15.30;59.40
37052;DHT22;22964;52.272;13.356;2023-12-29T13:15:34;15.30;59.60
37052;DHT22;22964;52.272;13.356;2023-12-29T13:17:59;15.40;59.60
37052;DHT22;22964;52.272;13.356;2023-12-29T13:20:25;15.40;59.60
37052;DHT22;22964;52.272;13.356;2023-12-29T13:22:51;15.40;59.60
37052;DHT22;22964;52.272;13.356;2023-12-29T13:25:21;15.40;59.50
37052;DHT22;22964;52.272;13.356;2023-12-29T13:27:50;15.40;59.30
37052;DHT22;22964;52.272;13.356;2023-12-29T13:30:16;15.40;59.30
37052;DHT22;22964;52.272;13.356;2023-12-29T13:32:42;15.40;59.50
37052;DHT22;22964;52.272;13.356;2023-12-29T13:42:59;15.40;59.10
37052;DHT22;22964;52.272;13.356;2023-12-29T13:45:26;15.40;59.30
37052;DHT22;22964;52.272;13.356;2023-12-29T13:47:53;15.50;59.20
37052;DHT22;22964;52.272;13.356;2023-12-29T13:50:21;15.40;59.30
37052;DHT22;22964;52.272;13.356;2023-12-29T13:52:47;15.40;59.40
37052;DHT22;22964;52.272;13.356;2023-12-29T13:55:21;15.50;59.30
37052;DHT22;22964;52.272;13.356;2023-12-29T13:57:47;15.40;59.20
37052;DHT22;22964;52.272;13.356;2023-12-29T14:02:44;15.40;59.20
37052;DHT22;22964;52.272;13.356;2023-12-29T14:05:39;15.50;59.20
37052;DHT22;22964;52.272;13.356;2023-12-29T14:08:08;15.40;59.10
37052;DHT22;22964;52.272;13.356;2023-12-29T14:10:36;15.40;59.30
37052;DHT22;22964;52.272;13.356;2023-12-29T14:13:09;15.50;59.40
37052;DHT22;22964;52.272;13.356;2023-12-29T14:15:39;15.50;59.40
37052;DHT22;22964;52.272;13.356;2023-12-29T14:20:56;15.40;59.20
37052;DHT22;22964;52.272;13.356;2023-12-29T14:23:22;15.40;59.40
37052;DHT22;22964;52.272;13.356;2023-12-29T14:25:47;15.50;59.50
37052;DHT22;22964;52.272;13.356;2023-12-29T14:28:18;15.40;59.50
37052;DHT22;22964;52.272;13.356;2023-12-29T14:30:44;15.40;59.40
37052;DHT22;22964;52.272;13.356;2023-12-29T14:33:10;15.40;59.50
37052;DHT22;22964;52.272;13.356;2023-12-29T14:35:36;15.40;59.60
37052;DHT22;22964;52.272;13.356;2023-12-29T14:38:02;15.40;59.60
37052;DHT22;22964;52.272;13.356;2023-12-29T14:40:29;15.40;59.60
37052;DHT22;22964;52.272;13.356;2023-12-29T14:42:55;15.40;59.60
37052;DHT22;22964;52.272;13.356;2023-12-29T14:45:21;15.40;59.60
37052;DHT22;22964;52.272;13.356;2023-12-29T14:47:46;15.40;59.60
37052;DHT22;22964;52.272;13.356;2023-12-29T14:50:14;15.30;59.60
37052;DHT22;22964;52.272;13.356;2023-12-29T14:52:40;15.40;59.80
37052;DHT22;22964;52.272;13.356;2023-12-29T14:55:06;15.40;59.80
37052;DHT22;22964;52.272;13.356;2023-12-29T14:57:32;15.30;59.70
37052;DHT22;22964;52.272;13.356;2023-12-29T14:59:57;15.30;59.80
37052;DHT22;22964;52.272;13.356;2023-12-29T15:02:23;15.30;59.90
37052;DHT22;22964;52.272;13.356;2023-12-29T15:04:49;15.30;60.00
37052;DHT22;22964;52.272;13.356;2023-12-29T15:07:18;15.30;60.00
37052;DHT22;22964;52.272;13.356;2023-12-29T15:09:44;15.30;60.00
37052;DHT22;22964;52.272;13.356;2023-12-29T15:12:09;15.30;60.00
37052;DHT22;22964;52.272;13.356;2023-12-29T15:14:35;15.30;60.10
37052;DHT22;22964;52.272;13.356;2023-12-29T15:17:01;15.30;60.10
37052;DHT22;22964;52.272;13.356;2023-12-29T15:19:27;15.30;60.10
37052;DHT22;22964;52.272;13.356;2023-12-29T15:21:52;15.30;60.20
37052;DHT22;22964;52.272;13.356;2023-12-29T15:24:19;15.30;60.20
37052;DHT22;22964;52.272;13.356;2023-12-29T15:26:45;15.30;60.30
37052;DHT22;22964;52.272;13.356;2023-12-29T15:29:11;15.30;60.30
37052;DHT22;22964;52.272;13.356;2023-12-29T15:31:37;15.30;60.40
37052;DHT22;22964;52.272;13.356;2023-12-29T15:34:03;15.30;60.40
37052;DHT22;22964;52.272;13.356;2023-12-29T15:36:29;15.30;60.40
37052;DHT22;22964;52.272;13.356;2023-12-29T15:38:55;15.20;60.30